Time;durP1;ratioP1;P1;durP2;ratioP2;P2;SDS_P1;SDS_P2;PMS_P1;PMS_P2;Temp;Humidity;BMP_temperature;BMP_pressure;BME280_temperature;BME280_humidity;BME280_pressure;Samples;Min_cycle;Max_cycle;Signal;HPM_P1;HPM_P2
2022/03/25 00:00:48;;;;;;;5.43;2.05;;;;;;;;;;20925004;28;20473;-57
2022/03/25 00:10:50;;;;;;;5.30;2.13;;;;;;;;;;20925529;28;20481;-59
2022/03/25 00:20:53;;;;;;;4.18;1.65;;;;;;;;;;20924366;28;20060;-59
2022/03/25 00:30:55;;;;;;;4.38;1.63;;;;;;;;;;20923324;28;20091;-60
2022/03/25 00:40:57;;;;;;;4.28;1.80;;;;;;;;;;20922884;28;20587;-60
2022/03/25 00:50:59;;;;;;;2.70;1.80;;;;;;;;;;20921656;28;20041;-60
2022/03/25 01:01:01;;;;;;;3.03;1.50;;;;;;;;;;20920092;28;20140;-59
2022/03/25 01:11:09;;;;;;;4.50;1.40;;;;;;;;;;20920567;28;20447;-60
2022/03/25 01:21:11;;;;;;;3.70;1.52;;;;;;;;;;20918996;28;20219;-61
2022/03/25 01:31:13;;;;;;;7.03;1.75;;;;;;;;;;20919638;28;20488;-60
2022/03/25 01:41:16;;;;;;;7.97;1.83;;;;;;;;;;20916837;28;20056;-59
2022/03/25 01:51:21;;;;;;;2.60;1.15;;;;;;;;;;20916801;28;20044;-60
2022/03/25 02:01:25;;;;;;;3.17;1.10;;;;;;;;;;20916141;28;20053;-61
2022/03/25 02:11:28;;;;;;;2.42;1.13;;;;;;;;;;20915036;28;20045;-59
2022/03/25 02:21:31;;;;;;;5.32;1.38;;;;;;;;;;20914665;28;20516;-59
2022/03/25 02:31:34;;;;;;;2.40;1.13;;;;;;;;;;20914457;28;20063;-60
2022/03/25 02:41:37;;;;;;;4.72;1.48;;;;;;;;;;20914195;28;20097;-56
2022/03/25 02:51:44;;;;;;;2.10;1.08;;;;;;;;;;20911809;28;20493;-58
2022/03/25 03:01:51;;;;;;;5.47;1.50;;;;;;;;;;20911655;28;20136;-60
2022/03/25 03:11:55;;;;;;;6.37;1.43;;;;;;;;;;20912347;28;20135;-60
2022/03/25 03:21:58;;;;;;;5.65;1.70;;;;;;;;;;20912543;28;20111;-59
2022/03/25 03:32:03;;;;;;;5.43;1.30;;;;;;;;;;20911298;28;20136;-62
2022/03/25 03:42:08;;;;;;;3.10;1.35;;;;;;;;;;20910786;28;20139;-57
2022/03/25 03:52:10;;;;;;;4.47;1.48;;;;;;;;;;20910360;28;20045;-58
2022/03/25 04:02:13;;;;;;;5.30;1.80;;;;;;;;;;20916732;28;20053;-58
2022/03/25 04:12:15;;;;;;;5.55;1.45;;;;;;;;;;20925580;28;20515;-57
2022/03/25 04:22:18;;;;;;;8.40;1.98;;;;;;;;;;20923957;28;20064;-59
2022/03/25 04:32:20;;;;;;;2.97;1.17;;;;;;;;;;20923027;28;20052;-59
2022/03/25 04:42:23;;;;;;;5.80;1.50;;;;;;;;;;20921708;28;20130;-56
2022/03/25 04:52:25;;;;;;;5.10;1.50;;;;;;;;;;20921954;28;20717;-57
2022/03/25 05:02:28;;;;;;;7.40;1.92;;;;;;;;;;20920475;28;20189;-58
2022/03/25 05:12:30;;;;;;;5.78;1.73;;;;;;;;;;20919861;28;20505;-59
2022/03/25 05:22:33;;;;;;;5.15;1.50;;;;;;;;;;20919387;28;20496;-57
2022/03/25 05:32:35;;;;;;;6.90;2.00;;;;;;;;;;20919039;28;20045;-59
2022/03/25 05:42:37;;;;;;;4.95;2.08;;;;;;;;;;20916962;28;20131;-60
2022/03/25 05:52:40;;;;;;;3.50;1.60;;;;;;;;;;20916585;28;20550;-60
2022/03/25 06:02:43;;;;;;;4.88;1.98;;;;;;;;;;20916412;28;20092;-61
2022/03/25 06:12:44;;;;;;;6.88;2.33;;;;;;;;;;20915076;28;20097;-60
2022/03/25 06:22:48;;;;;;;14.90;4.60;;;;;;;;;;20914106;28;20148;-59
2022/03/25 06:32:51;;;;;;;8.23;2.65;;;;;;;;;;20912865;28;20087;-60
2022/03/25 06:42:57;;;;;;;11.65;3.53;;;;;;;;;;20912575;28;20079;-59
2022/03/25 06:53:01;;;;;;;13.77;2.90;;;;;;;;;;20913487;28;20537;-59
2022/03/25 07:03:04;;;;;;;9.53;2.70;;;;;;;;;;20911999;28;20102;-60
2022/03/25 07:13:06;;;;;;;8.00;2.72;;;;;;;;;;20911516;28;20091;-59
2022/03/25 07:23:10;;;;;;;10.80;4.25;;;;;;;;;;20911050;28;20439;-57
2022/03/25 07:33:12;;;;;;;25.67;13.05;;;;;;;;;;20910695;28;20072;-59
2022/03/25 07:43:15;;;;;;;11.05;2.90;;;;;;;;;;20925626;28;20056;-57
2022/03/25 07:53:17;;;;;;;10.18;3.83;;;;;;;;;;20925860;28;20049;-59
2022/03/25 08:03:19;;;;;;;17.40;3.60;;;;;;;;;;20923842;28;20060;-59
2022/03/25 08:13:23;;;;;;;14.55;4.05;;;;;;;;;;20924989;28;20091;-57
2022/03/25 08:33:46;;;;;;;8.60;3.97;;;;;;;;;;20922126;28;20459;-57
2022/03/25 08:43:48;;;;;;;14.10;3.30;;;;;;;;;;20922561;28;20092;-57
2022/03/25 08:53:51;;;;;;;13.75;4.40;;;;;;;;;;20919832;28;20389;-57
2022/03/25 09:03:53;;;;;;;8.18;2.55;;;;;;;;;;20920544;28;20058;-57
2022/03/25 09:13:55;;;;;;;19.17;7.32;;;;;;;;;;20920094;28;20079;-57
2022/03/25 09:23:58;;;;;;;9.13;3.63;;;;;;;;;;20918544;28;20515;-59
2022/03/25 09:44:34;;;;;;;11.93;4.20;;;;;;;;;;20743249;28;20049;-57
2022/03/25 09:54:37;;;;;;;7.95;3.20;;;;;;;;;;20742132;28;20046;-59
2022/03/25 10:04:43;;;;;;;12.15;3.13;;;;;;;;;;20741870;28;20057;-60
2022/03/25 10:14:49;;;;;;;12.68;3.80;;;;;;;;;;20801261;28;20099;-57
2022/03/25 10:24:52;;;;;;;12.18;3.72;;;;;;;;;;20912479;28;20059;-57
2022/03/25 10:35:02;;;;;;;15.00;4.27;;;;;;;;;;20908518;28;20386;-59
2022/03/25 10:45:36;;;;;;;11.75;3.50;;;;;;;;;;20908307;28;20523;-57
2022/03/25 10:55:38;;;;;;;20.58;4.53;;;;;;;;;;20778896;28;20142;-58
2022/03/25 11:05:41;;;;;;;15.77;4.80;;;;;;;;;;20775755;28;20061;-58
2022/03/25 11:15:46;;;;;;;18.35;4.70;;;;;;;;;;20778456;28;20050;-58
2022/03/25 11:25:51;;;;;;;28.10;5.37;;;;;;;;;;20776976;28;20053;-57
2022/03/25 11:36:13;;;;;;;18.23;5.18;;;;;;;;;;20893729;28;20049;-56
2022/03/25 11:46:15;;;;;;;17.25;4.15;;;;;;;;;;20922845;28;20087;-57
2022/03/25 11:56:17;;;;;;;12.07;3.53;;;;;;;;;;20917510;28;20137;-55
2022/03/25 12:06:19;;;;;;;14.73;4.20;;;;;;;;;;20910216;28;20053;-55
2022/03/25 12:16:41;;;;;;;19.02;4.07;;;;;;;;;;20914568;28;20060;-54
2022/03/25 12:26:42;;;;;;;11.45;3.67;;;;;;;;;;20912111;28;20139;-57
2022/03/25 12:36:57;;;;;;;14.50;4.72;;;;;;;;;;20919503;28;20041;-57
2022/03/25 12:46:59;;;;;;;15.20;4.13;;;;;;;;;;20920134;28;20090;-56
2022/03/25 12:57:02;;;;;;;12.75;3.92;;;;;;;;;;20918279;28;20110;-55
2022/03/25 13:07:12;;;;;;;15.20;4.45;;;;;;;;;;20918996;28;20503;-55
2022/03/25 13:17:24;;;;;;;12.75;4.80;;;;;;;;;;20918590;28;20057;-56
2022/03/25 13:27:29;;;;;;;13.60;3.60;;;;;;;;;;20917014;28;20049;-56
2022/03/25 13:37:32;;;;;;;17.25;4.28;;;;;;;;;;20917405;28;20049;-56
2022/03/25 13:47:38;;;;;;;16.20;4.40;;;;;;;;;;20917018;28;20044;-55
2022/03/25 13:57:41;;;;;;;17.20;4.75;;;;;;;;;;20916705;28;20075;-55
2022/03/25 14:07:46;;;;;;;22.20;4.45;;;;;;;;;;20915136;28;20110;-56
2022/03/25 14:17:51;;;;;;;19.08;4.50;;;;;;;;;;20914958;28;20080;-55
2022/03/25 14:27:56;;;;;;;20.92;5.85;;;;;;;;;;20913878;28;20048;-55
2022/03/25 14:37:58;;;;;;;16.52;5.20;;;;;;;;;;20912583;28;20432;-55
2022/03/25 14:48:00;;;;;;;20.33;5.03;;;;;;;;;;20910802;28;20056;-57
2022/03/25 14:58:02;;;;;;;20.58;5.63;;;;;;;;;;20911370;28;20092;-58
2022/03/25 15:08:04;;;;;;;23.27;5.82;;;;;;;;;;20910833;28;20045;-57
2022/03/25 15:18:08;;;;;;;20.70;6.38;;;;;;;;;;20912287;28;20045;-56
2022/03/25 15:28:10;;;;;;;18.48;5.20;;;;;;;;;;20911656;28;20135;-55
2022/03/25 15:38:12;;;;;;;16.77;6.03;;;;;;;;;;20925077;28;20056;-57
2022/03/25 15:48:14;;;;;;;25.08;6.68;;;;;;;;;;20910258;28;20092;-55
2022/03/25 15:58:17;;;;;;;23.10;5.78;;;;;;;;;;20917249;28;20063;-56
2022/03/25 16:08:21;;;;;;;26.77;6.50;;;;;;;;;;20924475;28;20470;-56
2022/03/25 16:18:24;;;;;;;22.77;6.75;;;;;;;;;;20923123;28;20060;-57
2022/03/25 16:28:26;;;;;;;17.23;5.35;;;;;;;;;;20921830;28;20048;-60
2022/03/25 16:38:29;;;;;;;17.95;6.55;;;;;;;;;;20922153;28;20469;-56
2022/03/25 16:48:32;;;;;;;20.92;5.57;;;;;;;;;;20921003;28;20150;-62
2022/03/25 16:58:34;;;;;;;21.80;5.97;;;;;;;;;;20919896;28;20102;-57
2022/03/25 17:08:36;;;;;;;16.73;6.45;;;;;;;;;;20918297;28;20081;-56
2022/03/25 17:18:39;;;;;;;20.35;6.68;;;;;;;;;;20860703;28;20059;-57
2022/03/25 17:28:41;;;;;;;15.38;6.15;;;;;;;;;;20834736;28;20067;-64
2022/03/25 17:38:43;;;;;;;15.20;6.72;;;;;;;;;;20833779;28;20132;-61
2022/03/25 17:48:45;;;;;;;15.50;7.20;;;;;;;;;;20833439;28;20117;-60
2022/03/25 17:58:47;;;;;;;21.70;8.75;;;;;;;;;;20832970;28;20065;-58
2022/03/25 18:08:49;;;;;;;18.02;9.00;;;;;;;;;;20863493;28;20041;-57
2022/03/25 18:18:51;;;;;;;21.20;9.15;;;;;;;;;;20831217;28;20413;-58
2022/03/25 18:28:58;;;;;;;15.73;7.72;;;;;;;;;;20830972;28;20053;-57
2022/03/25 18:39:00;;;;;;;16.48;7.53;;;;;;;;;;20829736;28;20079;-58
2022/03/25 18:49:02;;;;;;;21.38;10.48;;;;;;;;;;20829194;28;20046;-55
2022/03/25 18:59:04;;;;;;;19.25;9.90;;;;;;;;;;20828407;28;20053;-60
2022/03/25 19:09:07;;;;;;;17.08;9.90;;;;;;;;;;20829076;28;20441;-57
2022/03/25 19:19:09;;;;;;;22.15;11.02;;;;;;;;;;20828665;28;20397;-57
2022/03/25 19:29:11;;;;;;;24.55;11.50;;;;;;;;;;20844003;28;20450;-60
2022/03/25 19:39:13;;;;;;;25.02;12.45;;;;;;;;;;20843235;28;20519;-62
2022/03/25 19:49:17;;;;;;;23.30;10.50;;;;;;;;;;20843305;28;20046;-58
2022/03/25 19:59:19;;;;;;;28.13;11.73;;;;;;;;;;20843492;28;21024;-59
2022/03/25 20:09:23;;;;;;;22.42;12.35;;;;;;;;;;20841915;28;20068;-57
2022/03/25 20:19:25;;;;;;;23.93;12.40;;;;;;;;;;20840527;28;20056;-57
2022/03/25 20:29:29;;;;;;;26.25;13.38;;;;;;;;;;20840280;28;20046;-56
2022/03/25 20:39:37;;;;;;;24.15;11.02;;;;;;;;;;20839280;28;20512;-55
2022/03/25 20:49:39;;;;;;;26.08;10.48;;;;;;;;;;20838368;28;20045;-56
2022/03/25 20:59:41;;;;;;;24.55;10.63;;;;;;;;;;20838354;28;20103;-57
2022/03/25 21:09:43;;;;;;;22.23;10.68;;;;;;;;;;20838309;28;20046;-56
2022/03/25 21:19:46;;;;;;;23.50;11.55;;;;;;;;;;20836031;28;20107;-56
2022/03/25 21:29:48;;;;;;;26.35;10.15;;;;;;;;;;20831594;28;20095;-56
2022/03/25 21:39:50;;;;;;;22.00;10.73;;;;;;;;;;20830400;28;20108;-55
2022/03/25 21:49:52;;;;;;;18.60;10.30;;;;;;;;;;20830192;28;20048;-55
2022/03/25 21:59:54;;;;;;;21.25;9.57;;;;;;;;;;20829509;28;20103;-53
2022/03/25 22:09:56;;;;;;;17.67;9.68;;;;;;;;;;20829404;28;20053;-53
2022/03/25 22:20:00;;;;;;;20.27;11.52;;;;;;;;;;20786158;28;1267593;-56
2022/03/25 22:30:03;;;;;;;20.45;10.48;;;;;;;;;;20831832;28;20056;-57
2022/03/25 22:40:05;;;;;;;14.63;9.32;;;;;;;;;;20830781;28;20053;-57
2022/03/25 22:50:07;;;;;;;18.45;10.55;;;;;;;;;;20830340;28;20077;-56
2022/03/25 23:00:09;;;;;;;16.33;9.60;;;;;;;;;;20829052;28;20104;-57
2022/03/25 23:10:11;;;;;;;16.55;11.15;;;;;;;;;;20829253;28;20048;-57
2022/03/25 23:20:14;;;;;;;15.93;10.23;;;;;;;;;;20828471;28;20057;-56
2022/03/25 23:30:16;;;;;;;14.55;8.95;;;;;;;;;;20828488;28;20138;-55
2022/03/25 23:40:18;;;;;;;14.05;8.85;;;;;;;;;;20827118;28;20107;-56
2022/03/25 23:50:20;;;;;;;13.52;7.95;;;;;;;;;;20828124;28;20053;-54
